sensor_id;sensor_type;location;lat;lon;timestamp;P1;durP1;ratioP1;P2;durP2;ratioP2
41404;SDS011;27146;51.788;8.824;2022-07-09T00:01:26;9.73;;;3.40;;
41404;SDS011;27146;51.788;8.824;2022-07-09T00:03:52;7.82;;;3.33;;
41404;SDS011;27146;51.788;8.824;2022-07-09T00:06:18;9.40;;;3.67;;
41404;SDS011;27146;51.788;8.824;2022-07-09T00:08:43;8.68;;;4.38;;
41404;SDS011;27146;51.788;8.824;2022-07-09T00:11:09;9.15;;;3.08;;
41404;SDS011;27146;51.788;8.824;2022-07-09T00:13:34;12.30;;;3.80;;
41404;SDS011;27146;51.788;8.824;2022-07-09T00:16:00;10.15;;;3.63;;
41404;SDS011;27146;51.788;8.824;2022-07-09T00:18:26;7.07;;;4.28;;
41404;SDS011;27146;51.788;8.824;2022-07-09T00:20:53;11.23;;;3.95;;
41404;SDS011;27146;51.788;8.824;2022-07-09T00:23:20;11.35;;;3.70;;
41404;SDS011;27146;51.788;8.824;2022-07-09T00:25:45;12.77;;;3.78;;
41404;SDS011;27146;51.788;8.824;2022-07-09T00:28:11;9.40;;;3.25;;
41404;SDS011;27146;51.788;8.824;2022-07-09T00:30:36;12.68;;;4.05;;
41404;SDS011;27146;51.788;8.824;2022-07-09T00:33:02;11.73;;;4.43;;
41404;SDS011;27146;51.788;8.824;2022-07-09T00:35:27;11.18;;;4.75;;
41404;SDS011;27146;51.788;8.824;2022-07-09T00:37:53;11.40;;;4.63;;
41404;SDS011;27146;51.788;8.824;2022-07-09T00:40:18;11.27;;;4.47;;
41404;SDS011;27146;51.788;8.824;2022-07-09T00:42:44;8.90;;;4.95;;
41404;SDS011;27146;51.788;8.824;2022-07-09T00:45:09;10.27;;;4.85;;
41404;SDS011;27146;51.788;8.824;2022-07-09T00:47:35;6.45;;;4.28;;
41404;SDS011;27146;51.788;8.824;2022-07-09T00:50:00;11.32;;;5.25;;
41404;SDS011;27146;51.788;8.824;2022-07-09T00:52:26;8.48;;;4.45;;
41404;SDS011;27146;51.788;8.824;2022-07-09T00:54:54;12.80;;;4.93;;
41404;SDS011;27146;51.788;8.824;2022-07-09T00:57:21;7.85;;;4.75;;
41404;SDS011;27146;51.788;8.824;2022-07-09T00:59:47;8.50;;;4.28;;
41404;SDS011;27146;51.788;8.824;2022-07-09T01:02:13;8.45;;;4.28;;
41404;SDS011;27146;51.788;8.824;2022-07-09T01:04:39;6.75;;;3.90;;
41404;SDS011;27146;51.788;8.824;2022-07-09T01:07:04;10.20;;;4.93;;
41404;SDS011;27146;51.788;8.824;2022-07-09T01:09:30;8.88;;;5.80;;
41404;SDS011;27146;51.788;8.824;2022-07-09T01:11:57;8.95;;;4.30;;
41404;SDS011;27146;51.788;8.824;2022-07-09T01:14:23;10.20;;;5.53;;
41404;SDS011;27146;51.788;8.824;2022-07-09T01:16:56;9.68;;;4.95;;
41404;SDS011;27146;51.788;8.824;2022-07-09T01:19:26;12.18;;;5.57;;
41404;SDS011;27146;51.788;8.824;2022-07-09T01:21:53;11.88;;;5.05;;
41404;SDS011;27146;51.788;8.824;2022-07-09T01:24:19;9.75;;;6.43;;
41404;SDS011;27146;51.788;8.824;2022-07-09T01:26:45;9.07;;;5.38;;
41404;SDS011;27146;51.788;8.824;2022-07-09T01:29:11;13.95;;;5.82;;
41404;SDS011;27146;51.788;8.824;2022-07-09T01:31:37;10.88;;;4.85;;
41404;SDS011;27146;51.788;8.824;2022-07-09T01:34:02;10.27;;;5.53;;
41404;SDS011;27146;51.788;8.824;2022-07-09T01:36:27;11.82;;;6.15;;
41404;SDS011;27146;51.788;8.824;2022-07-09T01:38:53;12.68;;;7.13;;
41404;SDS011;27146;51.788;8.824;2022-07-09T01:41:18;10.25;;;6.03;;
41404;SDS011;27146;51.788;8.824;2022-07-09T01:43:44;13.77;;;6.30;;
41404;SDS011;27146;51.788;8.824;2022-07-09T01:46:09;10.75;;;6.63;;
41404;SDS011;27146;51.788;8.824;2022-07-09T01:48:35;12.15;;;5.00;;
41404;SDS011;27146;51.788;8.824;2022-07-09T01:51:01;11.50;;;6.00;;
41404;SDS011;27146;51.788;8.824;2022-07-09T01:53:26;14.57;;;6.05;;
41404;SDS011;27146;51.788;8.824;2022-07-09T01:55:52;12.65;;;6.13;;
41404;SDS011;27146;51.788;8.824;2022-07-09T01:58:17;12.15;;;6.38;;
41404;SDS011;27146;51.788;8.824;2022-07-09T02:00:43;12.40;;;6.82;;
41404;SDS011;27146;51.788;8.824;2022-07-09T02:03:09;10.65;;;6.72;;
41404;SDS011;27146;51.788;8.824;2022-07-09T02:05:34;12.73;;;5.88;;
41404;SDS011;27146;51.788;8.824;2022-07-09T02:08:00;11.85;;;5.65;;
41404;SDS011;27146;51.788;8.824;2022-07-09T02:10:26;13.82;;;7.05;;
41404;SDS011;27146;51.788;8.824;2022-07-09T02:12:51;7.90;;;5.00;;
41404;SDS011;27146;51.788;8.824;2022-07-09T02:15:17;10.18;;;5.22;;
41404;SDS011;27146;51.788;8.824;2022-07-09T02:17:43;9.63;;;5.30;;
41404;SDS011;27146;51.788;8.824;2022-07-09T02:20:08;10.98;;;4.90;;
41404;SDS011;27146;51.788;8.824;2022-07-09T02:22:34;11.50;;;5.95;;
41404;SDS011;27146;51.788;8.824;2022-07-09T02:25:00;9.23;;;5.00;;
41404;SDS011;27146;51.788;8.824;2022-07-09T02:27:26;8.32;;;5.40;;
41404;SDS011;27146;51.788;8.824;2022-07-09T02:29:51;13.55;;;5.85;;
41404;SDS011;27146;51.788;8.824;2022-07-09T02:32:17;12.13;;;5.85;;
41404;SDS011;27146;51.788;8.824;2022-07-09T02:34:43;11.88;;;6.40;;
41404;SDS011;27146;51.788;8.824;2022-07-09T02:37:08;13.95;;;6.32;;
41404;SDS011;27146;51.788;8.824;2022-07-09T02:39:34;11.38;;;6.72;;
41404;SDS011;27146;51.788;8.824;2022-07-09T02:41:59;13.15;;;5.57;;
41404;SDS011;27146;51.788;8.824;2022-07-09T02:44:25;13.10;;;5.70;;
41404;SDS011;27146;51.788;8.824;2022-07-09T02:46:51;9.60;;;5.38;;
41404;SDS011;27146;51.788;8.824;2022-07-09T02:49:16;7.60;;;5.72;;
41404;SDS011;27146;51.788;8.824;2022-07-09T02:51:42;16.90;;;6.72;;
41404;SDS011;27146;51.788;8.824;2022-07-09T02:54:08;13.80;;;6.25;;
41404;SDS011;27146;51.788;8.824;2022-07-09T02:56:33;12.77;;;6.63;;
41404;SDS011;27146;51.788;8.824;2022-07-09T02:58:59;11.13;;;6.25;;
41404;SDS011;27146;51.788;8.824;2022-07-09T03:01:25;9.70;;;5.20;;
41404;SDS011;27146;51.788;8.824;2022-07-09T03:03:51;10.30;;;6.22;;
41404;SDS011;27146;51.788;8.824;2022-07-09T03:06:17;12.20;;;5.68;;
41404;SDS011;27146;51.788;8.824;2022-07-09T03:08:42;13.18;;;6.10;;
41404;SDS011;27146;51.788;8.824;2022-07-09T03:11:08;10.50;;;6.65;;
41404;SDS011;27146;51.788;8.824;2022-07-09T03:13:34;9.90;;;5.88;;
41404;SDS011;27146;51.788;8.824;2022-07-09T03:16:01;16.25;;;7.57;;
41404;SDS011;27146;51.788;8.824;2022-07-09T03:18:27;9.82;;;5.72;;
41404;SDS011;27146;51.788;8.824;2022-07-09T03:20:52;10.35;;;6.85;;
41404;SDS011;27146;51.788;8.824;2022-07-09T03:23:18;11.77;;;6.82;;
41404;SDS011;27146;51.788;8.824;2022-07-09T03:25:43;18.20;;;8.27;;
41404;SDS011;27146;51.788;8.824;2022-07-09T03:28:09;12.68;;;6.63;;
41404;SDS011;27146;51.788;8.824;2022-07-09T03:30:35;11.35;;;8.05;;
41404;SDS011;27146;51.788;8.824;2022-07-09T03:33:01;9.50;;;6.30;;
41404;SDS011;27146;51.788;8.824;2022-07-09T03:35:26;14.13;;;7.65;;
41404;SDS011;27146;51.788;8.824;2022-07-09T03:37:52;13.65;;;7.60;;
41404;SDS011;27146;51.788;8.824;2022-07-09T03:40:18;13.73;;;7.38;;
41404;SDS011;27146;51.788;8.824;2022-07-09T03:42:43;15.80;;;7.53;;
41404;SDS011;27146;51.788;8.824;2022-07-09T03:45:09;12.32;;;6.63;;
41404;SDS011;27146;51.788;8.824;2022-07-09T03:47:35;11.73;;;6.63;;
41404;SDS011;27146;51.788;8.824;2022-07-09T03:50:01;10.75;;;6.07;;
41404;SDS011;27146;51.788;8.824;2022-07-09T03:52:26;16.20;;;7.63;;
41404;SDS011;27146;51.788;8.824;2022-07-09T03:54:52;14.35;;;9.55;;
41404;SDS011;27146;51.788;8.824;2022-07-09T03:57:17;11.57;;;8.02;;
41404;SDS011;27146;51.788;8.824;2022-07-09T03:59:43;14.00;;;7.47;;
41404;SDS011;27146;51.788;8.824;2022-07-09T04:02:08;13.10;;;7.70;;
41404;SDS011;27146;51.788;8.824;2022-07-09T04:04:34;15.73;;;7.82;;
41404;SDS011;27146;51.788;8.824;2022-07-09T04:06:59;14.98;;;7.78;;
41404;SDS011;27146;51.788;8.824;2022-07-09T04:09:25;17.35;;;8.38;;
41404;SDS011;27146;51.788;8.824;2022-07-09T04:11:50;13.15;;;8.02;;
41404;SDS011;27146;51.788;8.824;2022-07-09T04:14:16;19.60;;;8.00;;
41404;SDS011;27146;51.788;8.824;2022-07-09T04:16:44;15.48;;;7.72;;
41404;SDS011;27146;51.788;8.824;2022-07-09T04:19:11;10.55;;;6.75;;
41404;SDS011;27146;51.788;8.824;2022-07-09T04:21:37;12.73;;;6.90;;
41404;SDS011;27146;51.788;8.824;2022-07-09T04:24:02;11.63;;;6.32;;
41404;SDS011;27146;51.788;8.824;2022-07-09T04:26:28;16.55;;;7.00;;
41404;SDS011;27146;51.788;8.824;2022-07-09T04:28:54;14.68;;;7.95;;
41404;SDS011;27146;51.788;8.824;2022-07-09T04:31:19;13.20;;;7.32;;
41404;SDS011;27146;51.788;8.824;2022-07-09T04:33:46;19.15;;;7.78;;
41404;SDS011;27146;51.788;8.824;2022-07-09T04:36:12;19.45;;;8.38;;
41404;SDS011;27146;51.788;8.824;2022-07-09T04:38:37;16.08;;;8.60;;
41404;SDS011;27146;51.788;8.824;2022-07-09T04:41:03;12.68;;;6.68;;
41404;SDS011;27146;51.788;8.824;2022-07-09T04:43:29;10.63;;;7.95;;
41404;SDS011;27146;51.788;8.824;2022-07-09T04:45:55;17.50;;;8.50;;
41404;SDS011;27146;51.788;8.824;2022-07-09T04:48:20;14.55;;;8.75;;
41404;SDS011;27146;51.788;8.824;2022-07-09T04:50:46;17.67;;;9.82;;
41404;SDS011;27146;51.788;8.824;2022-07-09T04:53:11;17.38;;;9.55;;
41404;SDS011;27146;51.788;8.824;2022-07-09T04:55:37;14.82;;;8.48;;
41404;SDS011;27146;51.788;8.824;2022-07-09T04:58:02;16.50;;;8.57;;
41404;SDS011;27146;51.788;8.824;2022-07-09T05:00:28;19.70;;;9.43;;
41404;SDS011;27146;51.788;8.824;2022-07-09T05:02:53;18.02;;;10.02;;
41404;SDS011;27146;51.788;8.824;2022-07-09T05:05:19;21.50;;;10.77;;
41404;SDS011;27146;51.788;8.824;2022-07-09T05:07:48;20.63;;;11.73;;
41404;SDS011;27146;51.788;8.824;2022-07-09T05:10:13;19.75;;;12.80;;
41404;SDS011;27146;51.788;8.824;2022-07-09T05:12:39;24.90;;;11.60;;
41404;SDS011;27146;51.788;8.824;2022-07-09T05:15:05;19.73;;;12.35;;
41404;SDS011;27146;51.788;8.824;2022-07-09T05:17:35;21.75;;;11.45;;
41404;SDS011;27146;51.788;8.824;2022-07-09T05:20:02;22.42;;;12.73;;
41404;SDS011;27146;51.788;8.824;2022-07-09T05:22:29;19.38;;;11.00;;
41404;SDS011;27146;51.788;8.824;2022-07-09T05:24:58;18.20;;;12.23;;
41404;SDS011;27146;51.788;8.824;2022-07-09T05:27:24;25.05;;;13.57;;
41404;SDS011;27146;51.788;8.824;2022-07-09T05:29:50;20.95;;;10.98;;
41404;SDS011;27146;51.788;8.824;2022-07-09T05:32:16;19.50;;;12.07;;
41404;SDS011;27146;51.788;8.824;2022-07-09T05:34:41;17.13;;;11.73;;
41404;SDS011;27146;51.788;8.824;2022-07-09T05:37:07;18.77;;;11.05;;
41404;SDS011;27146;51.788;8.824;2022-07-09T05:39:33;24.73;;;13.32;;
41404;SDS011;27146;51.788;8.824;2022-07-09T05:41:58;25.80;;;13.85;;
41404;SDS011;27146;51.788;8.824;2022-07-09T05:44:24;25.00;;;14.25;;
41404;SDS011;27146;51.788;8.824;2022-07-09T05:46:49;21.65;;;13.00;;
41404;SDS011;27146;51.788;8.824;2022-07-09T05:49:15;24.23;;;12.88;;
41404;SDS011;27146;51.788;8.824;2022-07-09T05:51:40;17.25;;;11.93;;
41404;SDS011;27146;51.788;8.824;2022-07-09T05:54:06;21.50;;;12.18;;
41404;SDS011;27146;51.788;8.824;2022-07-09T05:56:31;23.98;;;13.55;;
41404;SDS011;27146;51.788;8.824;2022-07-09T05:58:57;22.67;;;12.70;;
41404;SDS011;27146;51.788;8.824;2022-07-09T06:01:22;22.85;;;12.48;;
41404;SDS011;27146;51.788;8.824;2022-07-09T06:03:48;18.58;;;11.32;;
41404;SDS011;27146;51.788;8.824;2022-07-09T06:06:13;24.15;;;12.75;;
41404;SDS011;27146;51.788;8.824;2022-07-09T06:08:39;24.55;;;12.82;;
41404;SDS011;27146;51.788;8.824;2022-07-09T06:11:05;22.77;;;10.98;;
41404;SDS011;27146;51.788;8.824;2022-07-09T06:13:31;24.67;;;14.52;;
41404;SDS011;27146;51.788;8.824;2022-07-09T06:15:56;20.30;;;12.13;;
41404;SDS011;27146;51.788;8.824;2022-07-09T06:18:22;17.40;;;12.00;;
41404;SDS011;27146;51.788;8.824;2022-07-09T06:20:47;24.45;;;11.98;;
41404;SDS011;27146;51.788;8.824;2022-07-09T06:23:13;18.45;;;11.20;;
41404;SDS011;27146;51.788;8.824;2022-07-09T06:25:39;21.33;;;11.60;;
41404;SDS011;27146;51.788;8.824;2022-07-09T06:28:05;17.13;;;11.10;;
41404;SDS011;27146;51.788;8.824;2022-07-09T06:30:31;20.33;;;12.40;;
41404;SDS011;27146;51.788;8.824;2022-07-09T06:32:57;16.85;;;11.45;;
41404;SDS011;27146;51.788;8.824;2022-07-09T06:35:23;17.58;;;9.80;;
41404;SDS011;27146;51.788;8.824;2022-07-09T06:37:49;15.40;;;9.25;;
41404;SDS011;27146;51.788;8.824;2022-07-09T06:40:15;18.38;;;12.18;;
41404;SDS011;27146;51.788;8.824;2022-07-09T06:42:40;16.73;;;10.38;;
41404;SDS011;27146;51.788;8.824;2022-07-09T06:45:06;17.67;;;8.85;;
41404;SDS011;27146;51.788;8.824;2022-07-09T06:47:33;13.88;;;7.97;;
41404;SDS011;27146;51.788;8.824;2022-07-09T06:49:59;18.83;;;8.50;;
41404;SDS011;27146;51.788;8.824;2022-07-09T06:52:24;13.00;;;8.40;;
41404;SDS011;27146;51.788;8.824;2022-07-09T06:54:50;14.80;;;7.28;;
41404;SDS011;27146;51.788;8.824;2022-07-09T06:57:15;11.77;;;7.20;;
41404;SDS011;27146;51.788;8.824;2022-07-09T06:59:42;11.98;;;6.22;;
41404;SDS011;27146;51.788;8.824;2022-07-09T07:02:10;10.88;;;6.40;;
41404;SDS011;27146;51.788;8.824;2022-07-09T07:04:35;11.05;;;5.82;;
41404;SDS011;27146;51.788;8.824;2022-07-09T07:07:01;12.85;;;5.93;;
41404;SDS011;27146;51.788;8.824;2022-07-09T07:09:26;8.13;;;5.13;;
41404;SDS011;27146;51.788;8.824;2022-07-09T07:11:53;11.10;;;5.78;;
41404;SDS011;27146;51.788;8.824;2022-07-09T07:14:19;9.40;;;5.50;;
41404;SDS011;27146;51.788;8.824;2022-07-09T07:16:44;12.18;;;6.03;;
41404;SDS011;27146;51.788;8.824;2022-07-09T07:19:10;15.90;;;7.57;;
41404;SDS011;27146;51.788;8.824;2022-07-09T07:21:36;8.73;;;4.90;;
41404;SDS011;27146;51.788;8.824;2022-07-09T07:24:03;8.40;;;5.20;;
41404;SDS011;27146;51.788;8.824;2022-07-09T07:26:29;11.23;;;5.18;;
41404;SDS011;27146;51.788;8.824;2022-07-09T07:28:55;8.88;;;5.10;;
41404;SDS011;27146;51.788;8.824;2022-07-09T07:31:20;10.15;;;5.03;;
41404;SDS011;27146;51.788;8.824;2022-07-09T07:33:47;13.52;;;4.97;;
41404;SDS011;27146;51.788;8.824;2022-07-09T07:36:13;8.75;;;4.57;;
41404;SDS011;27146;51.788;8.824;2022-07-09T07:38:39;10.23;;;4.47;;
41404;SDS011;27146;51.788;8.824;2022-07-09T07:41:04;7.57;;;4.68;;
41404;SDS011;27146;51.788;8.824;2022-07-09T07:43:30;6.30;;;4.10;;
41404;SDS011;27146;51.788;8.824;2022-07-09T07:45:56;9.15;;;4.65;;
41404;SDS011;27146;51.788;8.824;2022-07-09T07:48:21;8.23;;;4.45;;
41404;SDS011;27146;51.788;8.824;2022-07-09T07:50:47;11.13;;;4.18;;
41404;SDS011;27146;51.788;8.824;2022-07-09T07:53:12;9.32;;;4.53;;
41404;SDS011;27146;51.788;8.824;2022-07-09T07:55:38;6.05;;;3.53;;
41404;SDS011;27146;51.788;8.824;2022-07-09T07:58:04;8.27;;;3.72;;
41404;SDS011;27146;51.788;8.824;2022-07-09T08:00:30;6.80;;;3.20;;
41404;SDS011;27146;51.788;8.824;2022-07-09T08:02:56;8.50;;;3.30;;
41404;SDS011;27146;51.788;8.824;2022-07-09T08:05:21;8.60;;;2.85;;
41404;SDS011;27146;51.788;8.824;2022-07-09T08:07:47;14.05;;;3.42;;
41404;SDS011;27146;51.788;8.824;2022-07-09T08:10:12;10.98;;;2.92;;
41404;SDS011;27146;51.788;8.824;2022-07-09T08:12:38;8.38;;;2.70;;
41404;SDS011;27146;51.788;8.824;2022-07-09T08:15:03;5.75;;;2.85;;
41404;SDS011;27146;51.788;8.824;2022-07-09T08:17:29;5.60;;;2.90;;
41404;SDS011;27146;51.788;8.824;2022-07-09T08:19:55;6.53;;;2.72;;
41404;SDS011;27146;51.788;8.824;2022-07-09T08:22:20;8.32;;;2.50;;
41404;SDS011;27146;51.788;8.824;2022-07-09T08:24:46;9.27;;;2.75;;
41404;SDS011;27146;51.788;8.824;2022-07-09T08:27:11;7.65;;;2.70;;
41404;SDS011;27146;51.788;8.824;2022-07-09T08:29:37;5.53;;;2.45;;
41404;SDS011;27146;51.788;8.824;2022-07-09T08:32:03;6.53;;;3.20;;
41404;SDS011;27146;51.788;8.824;2022-07-09T08:34:29;13.07;;;3.15;;
41404;SDS011;27146;51.788;8.824;2022-07-09T08:36:54;8.85;;;2.63;;
41404;SDS011;27146;51.788;8.824;2022-07-09T08:39:20;8.10;;;2.85;;
41404;SDS011;27146;51.788;8.824;2022-07-09T08:41:45;12.25;;;3.20;;
41404;SDS011;27146;51.788;8.824;2022-07-09T08:44:12;5.00;;;2.40;;
41404;SDS011;27146;51.788;8.824;2022-07-09T08:46:38;9.38;;;2.15;;
41404;SDS011;27146;51.788;8.824;2022-07-09T08:49:04;5.75;;;2.20;;
41404;SDS011;27146;51.788;8.824;2022-07-09T08:51:31;4.80;;;1.95;;
41404;SDS011;27146;51.788;8.824;2022-07-09T08:53:58;3.80;;;1.67;;
41404;SDS011;27146;51.788;8.824;2022-07-09T08:56:25;5.20;;;1.80;;
41404;SDS011;27146;51.788;8.824;2022-07-09T08:58:50;5.38;;;1.98;;
41404;SDS011;27146;51.788;8.824;2022-07-09T09:01:16;5.50;;;1.90;;
41404;SDS011;27146;51.788;8.824;2022-07-09T09:03:42;3.05;;;1.60;;
41404;SDS011;27146;51.788;8.824;2022-07-09T09:06:09;3.38;;;1.67;;
41404;SDS011;27146;51.788;8.824;2022-07-09T09:08:36;4.18;;;1.60;;
41404;SDS011;27146;51.788;8.824;2022-07-09T09:11:07;4.53;;;2.13;;
41404;SDS011;27146;51.788;8.824;2022-07-09T09:13:41;6.80;;;2.53;;
41404;SDS011;27146;51.788;8.824;2022-07-09T09:16:08;6.03;;;2.40;;
41404;SDS011;27146;51.788;8.824;2022-07-09T09:18:41;6.68;;;2.53;;
41404;SDS011;27146;51.788;8.824;2022-07-09T09:21:08;9.50;;;3.00;;
41404;SDS011;27146;51.788;8.824;2022-07-09T09:28:46;12.60;;;2.47;;
41404;SDS011;27146;51.788;8.824;2022-07-09T09:31:20;3.30;;;1.60;;
41404;SDS011;27146;51.788;8.824;2022-07-09T09:33:47;5.07;;;2.13;;
41404;SDS011;27146;51.788;8.824;2022-07-09T09:36:29;7.25;;;2.22;;
41404;SDS011;27146;51.788;8.824;2022-07-09T09:39:16;8.27;;;2.78;;
41404;SDS011;27146;51.788;8.824;2022-07-09T09:41:43;7.22;;;2.03;;
41404;SDS011;27146;51.788;8.824;2022-07-09T09:44:17;5.90;;;2.08;;
41404;SDS011;27146;51.788;8.824;2022-07-09T09:46:44;5.63;;;2.00;;
41404;SDS011;27146;51.788;8.824;2022-07-09T09:49:11;5.75;;;1.90;;
41404;SDS011;27146;51.788;8.824;2022-07-09T09:52:02;7.13;;;2.08;;
41404;SDS011;27146;51.788;8.824;2022-07-09T09:54:31;5.40;;;2.20;;
41404;SDS011;27146;51.788;8.824;2022-07-09T09:56:58;5.05;;;1.90;;
41404;SDS011;27146;51.788;8.824;2022-07-09T09:59:24;5.78;;;2.17;;
41404;SDS011;27146;51.788;8.824;2022-07-09T10:01:50;3.70;;;2.03;;
41404;SDS011;27146;51.788;8.824;2022-07-09T10:04:16;3.60;;;2.08;;
41404;SDS011;27146;51.788;8.824;2022-07-09T10:06:43;8.27;;;2.55;;
41404;SDS011;27146;51.788;8.824;2022-07-09T10:09:11;8.32;;;2.35;;
41404;SDS011;27146;51.788;8.824;2022-07-09T10:11:38;5.90;;;2.30;;
41404;SDS011;27146;51.788;8.824;2022-07-09T10:14:13;5.40;;;1.70;;
41404;SDS011;27146;51.788;8.824;2022-07-09T10:16:48;7.05;;;2.58;;
41404;SDS011;27146;51.788;8.824;2022-07-09T10:19:27;5.95;;;2.63;;
41404;SDS011;27146;51.788;8.824;2022-07-09T10:21:55;7.15;;;2.78;;
41404;SDS011;27146;51.788;8.824;2022-07-09T10:24:28;6.97;;;2.38;;
41404;SDS011;27146;51.788;8.824;2022-07-09T10:29:34;7.95;;;2.83;;
41404;SDS011;27146;51.788;8.824;2022-07-09T10:32:00;10.57;;;2.10;;
41404;SDS011;27146;51.788;8.824;2022-07-09T10:34:30;5.45;;;2.17;;
41404;SDS011;27146;51.788;8.824;2022-07-09T10:36:59;5.60;;;2.30;;
41404;SDS011;27146;51.788;8.824;2022-07-09T10:39:26;4.63;;;2.28;;
41404;SDS011;27146;51.788;8.824;2022-07-09T10:44:44;8.68;;;2.10;;
41404;SDS011;27146;51.788;8.824;2022-07-09T10:47:14;5.82;;;2.42;;
41404;SDS011;27146;51.788;8.824;2022-07-09T10:49:40;4.53;;;1.83;;
41404;SDS011;27146;51.788;8.824;2022-07-09T10:52:06;5.22;;;1.80;;
41404;SDS011;27146;51.788;8.824;2022-07-09T10:54:33;5.68;;;1.88;;
41404;SDS011;27146;51.788;8.824;2022-07-09T10:57:12;4.60;;;1.67;;
41404;SDS011;27146;51.788;8.824;2022-07-09T10:59:46;6.93;;;1.90;;
41404;SDS011;27146;51.788;8.824;2022-07-09T11:02:18;5.30;;;1.70;;
41404;SDS011;27146;51.788;8.824;2022-07-09T11:04:48;3.63;;;1.67;;
41404;SDS011;27146;51.788;8.824;2022-07-09T11:07:25;11.63;;;2.08;;
41404;SDS011;27146;51.788;8.824;2022-07-09T11:09:51;4.03;;;1.20;;
41404;SDS011;27146;51.788;8.824;2022-07-09T11:12:17;6.70;;;1.70;;
41404;SDS011;27146;51.788;8.824;2022-07-09T11:14:48;4.65;;;1.23;;
41404;SDS011;27146;51.788;8.824;2022-07-09T11:17:15;3.10;;;1.60;;
41404;SDS011;27146;51.788;8.824;2022-07-09T11:19:45;8.05;;;1.55;;
41404;SDS011;27146;51.788;8.824;2022-07-09T11:22:12;4.03;;;1.23;;
41404;SDS011;27146;51.788;8.824;2022-07-09T11:24:38;6.68;;;1.42;;
41404;SDS011;27146;51.788;8.824;2022-07-09T11:27:04;5.88;;;1.60;;
41404;SDS011;27146;51.788;8.824;2022-07-09T11:29:31;4.30;;;1.90;;
41404;SDS011;27146;51.788;8.824;2022-07-09T11:31:57;5.70;;;1.65;;
41404;SDS011;27146;51.788;8.824;2022-07-09T11:34:23;8.55;;;1.88;;
41404;SDS011;27146;51.788;8.824;2022-07-09T11:36:52;7.18;;;1.73;;
41404;SDS011;27146;51.788;8.824;2022-07-09T11:39:32;4.50;;;1.30;;
41404;SDS011;27146;51.788;8.824;2022-07-09T11:41:59;5.63;;;1.42;;
41404;SDS011;27146;51.788;8.824;2022-07-09T11:44:26;4.18;;;1.67;;
41404;SDS011;27146;51.788;8.824;2022-07-09T11:49:36;5.07;;;1.38;;
41404;SDS011;27146;51.788;8.824;2022-07-09T11:52:04;6.30;;;1.58;;
41404;SDS011;27146;51.788;8.824;2022-07-09T11:55:02;2.83;;;1.55;;
41404;SDS011;27146;51.788;8.824;2022-07-09T11:57:34;5.53;;;1.70;;
41404;SDS011;27146;51.788;8.824;2022-07-09T12:00:00;4.20;;;1.50;;
41404;SDS011;27146;51.788;8.824;2022-07-09T12:02:29;6.60;;;1.90;;
41404;SDS011;27146;51.788;8.824;2022-07-09T12:04:59;5.28;;;1.98;;
41404;SDS011;27146;51.788;8.824;2022-07-09T12:07:25;4.25;;;1.58;;
41404;SDS011;27146;51.788;8.824;2022-07-09T12:09:59;6.07;;;1.25;;
41404;SDS011;27146;51.788;8.824;2022-07-09T12:12:30;3.22;;;1.48;;
41404;SDS011;27146;51.788;8.824;2022-07-09T12:14:56;5.07;;;1.45;;
41404;SDS011;27146;51.788;8.824;2022-07-09T12:17:22;5.22;;;1.60;;
41404;SDS011;27146;51.788;8.824;2022-07-09T12:19:49;3.85;;;1.50;;
41404;SDS011;27146;51.788;8.824;2022-07-09T12:22:15;10.73;;;1.73;;
41404;SDS011;27146;51.788;8.824;2022-07-09T12:24:40;7.53;;;1.85;;
41404;SDS011;27146;51.788;8.824;2022-07-09T12:27:07;3.58;;;1.40;;
41404;SDS011;27146;51.788;8.824;2022-07-09T12:29:32;3.85;;;1.38;;
41404;SDS011;27146;51.788;8.824;2022-07-09T12:31:58;3.65;;;1.00;;
41404;SDS011;27146;51.788;8.824;2022-07-09T12:34:23;3.72;;;1.17;;
41404;SDS011;27146;51.788;8.824;2022-07-09T12:36:49;6.72;;;1.30;;
41404;SDS011;27146;51.788;8.824;2022-07-09T12:39:14;5.47;;;1.23;;
41404;SDS011;27146;51.788;8.824;2022-07-09T12:41:40;4.30;;;1.45;;
41404;SDS011;27146;51.788;8.824;2022-07-09T12:44:06;2.78;;;1.15;;
41404;SDS011;27146;51.788;8.824;2022-07-09T12:46:32;3.70;;;1.48;;
41404;SDS011;27146;51.788;8.824;2022-07-09T12:48:57;2.65;;;1.05;;
41404;SDS011;27146;51.788;8.824;2022-07-09T12:51:23;4.32;;;1.58;;
41404;SDS011;27146;51.788;8.824;2022-07-09T12:53:51;3.63;;;1.15;;
41404;SDS011;27146;51.788;8.824;2022-07-09T12:56:17;3.20;;;1.02;;
41404;SDS011;27146;51.788;8.824;2022-07-09T12:58:48;2.35;;;0.98;;
41404;SDS011;27146;51.788;8.824;2022-07-09T13:01:17;2.17;;;0.93;;
41404;SDS011;27146;51.788;8.824;2022-07-09T13:03:43;3.95;;;1.30;;
41404;SDS011;27146;51.788;8.824;2022-07-09T13:06:08;3.55;;;0.90;;
41404;SDS011;27146;51.788;8.824;2022-07-09T13:08:55;7.75;;;1.23;;
41404;SDS011;27146;51.788;8.824;2022-07-09T13:11:20;5.85;;;1.25;;
41404;SDS011;27146;51.788;8.824;2022-07-09T13:13:51;4.80;;;1.30;;
41404;SDS011;27146;51.788;8.824;2022-07-09T13:16:17;3.33;;;1.10;;
41404;SDS011;27146;51.788;8.824;2022-07-09T13:18:43;2.67;;;1.20;;
41404;SDS011;27146;51.788;8.824;2022-07-09T13:21:16;4.90;;;1.00;;
41404;SDS011;27146;51.788;8.824;2022-07-09T13:23:45;3.92;;;1.40;;
41404;SDS011;27146;51.788;8.824;2022-07-09T13:26:18;3.30;;;0.80;;
41404;SDS011;27146;51.788;8.824;2022-07-09T13:28:47;3.63;;;1.00;;
41404;SDS011;27146;51.788;8.824;2022-07-09T13:31:21;3.88;;;1.10;;
41404;SDS011;27146;51.788;8.824;2022-07-09T13:33:49;3.08;;;0.93;;
41404;SDS011;27146;51.788;8.824;2022-07-09T13:36:18;5.43;;;0.93;;
41404;SDS011;27146;51.788;8.824;2022-07-09T13:38:46;2.42;;;0.90;;
41404;SDS011;27146;51.788;8.824;2022-07-09T13:41:24;3.28;;;1.10;;
41404;SDS011;27146;51.788;8.824;2022-07-09T13:43:57;2.30;;;1.00;;
41404;SDS011;27146;51.788;8.824;2022-07-09T13:46:26;3.40;;;1.00;;
41404;SDS011;27146;51.788;8.824;2022-07-09T13:48:56;2.33;;;0.80;;
41404;SDS011;27146;51.788;8.824;2022-07-09T13:51:21;2.83;;;1.00;;
41404;SDS011;27146;51.788;8.824;2022-07-09T13:53:47;4.88;;;0.80;;
41404;SDS011;27146;51.788;8.824;2022-07-09T13:56:15;2.65;;;1.30;;
41404;SDS011;27146;51.788;8.824;2022-07-09T13:58:44;1.52;;;0.80;;
41404;SDS011;27146;51.788;8.824;2022-07-09T14:01:10;2.40;;;0.80;;
41404;SDS011;27146;51.788;8.824;2022-07-09T14:03:36;3.88;;;0.73;;
41404;SDS011;27146;51.788;8.824;2022-07-09T14:06:04;2.53;;;1.02;;
41404;SDS011;27146;51.788;8.824;2022-07-09T14:08:36;2.53;;;0.90;;
41404;SDS011;27146;51.788;8.824;2022-07-09T14:11:03;2.25;;;0.70;;
41404;SDS011;27146;51.788;8.824;2022-07-09T14:13:29;3.97;;;0.90;;
41404;SDS011;27146;51.788;8.824;2022-07-09T14:15:55;1.42;;;0.60;;
41404;SDS011;27146;51.788;8.824;2022-07-09T14:18:22;1.63;;;0.55;;
41404;SDS011;27146;51.788;8.824;2022-07-09T14:20:48;4.35;;;0.65;;
41404;SDS011;27146;51.788;8.824;2022-07-09T14:23:14;4.72;;;1.05;;
41404;SDS011;27146;51.788;8.824;2022-07-09T14:25:40;1.98;;;0.90;;
41404;SDS011;27146;51.788;8.824;2022-07-09T14:28:14;3.25;;;0.70;;
41404;SDS011;27146;51.788;8.824;2022-07-09T14:30:40;1.67;;;0.65;;
41404;SDS011;27146;51.788;8.824;2022-07-09T14:33:05;4.53;;;0.77;;
41404;SDS011;27146;51.788;8.824;2022-07-09T14:35:31;1.67;;;0.70;;
41404;SDS011;27146;51.788;8.824;2022-07-09T14:37:58;1.30;;;0.60;;
41404;SDS011;27146;51.788;8.824;2022-07-09T14:40:23;2.75;;;0.70;;
41404;SDS011;27146;51.788;8.824;2022-07-09T14:42:49;1.98;;;0.77;;
41404;SDS011;27146;51.788;8.824;2022-07-09T14:45:15;4.72;;;0.95;;
41404;SDS011;27146;51.788;8.824;2022-07-09T14:47:41;3.05;;;0.75;;
41404;SDS011;27146;51.788;8.824;2022-07-09T14:50:06;3.47;;;0.75;;
41404;SDS011;27146;51.788;8.824;2022-07-09T14:52:43;3.40;;;0.70;;